createdAt,value
2023-03-29T00:01:10.333Z,8.30
2023-03-29T00:03:40.413Z,8.10
2023-03-29T00:06:09.911Z,8.70
2023-03-29T00:08:39.062Z,7.80
2023-03-29T00:11:07.846Z,9.00
2023-03-29T00:13:36.713Z,10.90
2023-03-29T00:16:05.949Z,11.10
2023-03-29T00:18:34.702Z,7.90
2023-03-29T00:21:03.848Z,9.30
2023-03-29T00:23:32.764Z,8.80
2023-03-29T00:26:01.879Z,5.70
2023-03-29T00:28:31.478Z,9.40
2023-03-29T00:31:14.017Z,9.00
2023-03-29T00:33:43.556Z,9.80
2023-03-29T00:36:13.033Z,8.90
2023-03-29T00:38:42.267Z,9.10
2023-03-29T00:41:12.008Z,8.80
2023-03-29T00:44:00.192Z,9.90
2023-03-29T00:46:30.708Z,7.80
2023-03-29T00:49:09.884Z,8.90
2023-03-29T00:51:41.680Z,10.80
2023-03-29T00:54:18.799Z,9.20
2023-03-29T00:56:51.413Z,9.40
2023-03-29T00:59:28.360Z,6.80
2023-03-29T01:02:04.040Z,7.10
2023-03-29T01:04:43.928Z,7.00
2023-03-29T01:07:23.380Z,10.00
2023-03-29T01:10:09.403Z,7.20
2023-03-29T01:12:45.667Z,8.50
2023-03-29T01:15:27.413Z,8.70
2023-03-29T01:17:58.498Z,9.80
2023-03-29T01:20:44.031Z,7.20
2023-03-29T01:23:54.564Z,8.70
2023-03-29T01:27:15.823Z,7.40
2023-03-29T01:29:51.285Z,7.00
2023-03-29T01:32:37.882Z,6.40
2023-03-29T01:35:22.272Z,7.40
2023-03-29T01:38:05.537Z,7.10
2023-03-29T01:40:34.591Z,7.40
2023-03-29T01:43:20.666Z,7.90
2023-03-29T01:46:05.191Z,8.20
2023-03-29T01:48:42.419Z,6.90
2023-03-29T01:51:32.284Z,7.90
2023-03-29T01:54:12.036Z,7.80
2023-03-29T01:56:43.811Z,4.90
2023-03-29T01:59:18.838Z,7.50
2023-03-29T02:01:55.018Z,5.80
2023-03-29T02:04:31.945Z,5.10
2023-03-29T02:07:03.282Z,7.60
2023-03-29T02:09:33.884Z,6.80
2023-03-29T02:14:35.732Z,6.70
2023-03-29T02:17:21.212Z,6.10
2023-03-29T02:20:17.717Z,7.00
2023-03-29T02:23:29.176Z,7.40
2023-03-29T02:25:58.465Z,7.10
2023-03-29T02:28:28.735Z,6.50
2023-03-29T02:31:25.041Z,6.90
2023-03-29T02:34:05.397Z,7.50
2023-03-29T02:36:44.835Z,7.60
2023-03-29T02:39:15.818Z,7.90
2023-03-29T02:41:50.058Z,7.60
2023-03-29T02:44:26.942Z,8.40
2023-03-29T02:47:06.764Z,8.00
2023-03-29T02:49:35.651Z,8.60
2023-03-29T02:52:12.839Z,10.10
2023-03-29T02:54:45.479Z,7.20
2023-03-29T02:57:14.448Z,9.10
2023-03-29T02:59:44.814Z,7.90
2023-03-29T03:02:14.352Z,7.90
2023-03-29T03:04:43.437Z,8.90
2023-03-29T03:07:12.145Z,9.50
2023-03-29T03:09:41.380Z,8.30
2023-03-29T03:12:10.867Z,6.90
2023-03-29T03:14:39.725Z,8.80
2023-03-29T03:17:08.502Z,7.80
2023-03-29T03:19:37.411Z,9.00
2023-03-29T03:22:07.832Z,7.10
2023-03-29T03:24:36.625Z,9.70
2023-03-29T03:27:05.428Z,7.10
2023-03-29T03:29:35.536Z,8.20
2023-03-29T03:32:26.493Z,4.00
2023-03-29T03:35:13.728Z,8.30
2023-03-29T03:37:43.145Z,7.20
2023-03-29T03:40:13.822Z,7.90
2023-03-29T03:42:42.646Z,8.40
2023-03-29T03:45:12.347Z,12.10
2023-03-29T03:47:43.704Z,8.10
2023-03-29T03:50:21.972Z,7.30
2023-03-29T03:52:50.978Z,5.20
2023-03-29T03:55:22.161Z,9.50
2023-03-29T03:57:53.974Z,6.30
2023-03-29T04:00:23.639Z,9.10
2023-03-29T04:03:21.925Z,10.20
2023-03-29T04:05:51.936Z,6.30
2023-03-29T04:08:22.660Z,6.10
2023-03-29T04:11:10.627Z,11.40
2023-03-29T04:13:40.971Z,9.20
2023-03-29T04:16:28.732Z,9.50
2023-03-29T04:19:00.419Z,8.70
2023-03-29T04:21:29.552Z,9.20
2023-03-29T04:23:58.340Z,6.80
2023-03-29T04:26:27.360Z,6.90
2023-03-29T04:29:07.291Z,7.60
2023-03-29T04:31:44.031Z,9.20
2023-03-29T04:34:53.476Z,9.50
2023-03-29T04:37:22.519Z,7.80
2023-03-29T04:39:52.727Z,6.90
2023-03-29T04:42:21.538Z,7.80
2023-03-29T04:44:50.310Z,7.50
2023-03-29T04:47:23.784Z,8.20
2023-03-29T04:49:57.355Z,10.30
2023-03-29T04:52:33.536Z,8.60
2023-03-29T04:55:05.910Z,5.20
2023-03-29T04:57:49.961Z,8.70
2023-03-29T05:00:31.800Z,6.50
2023-03-29T05:03:27.308Z,7.50
2023-03-29T05:06:09.119Z,9.50
2023-03-29T05:08:40.735Z,7.90
2023-03-29T05:11:15.491Z,11.40
2023-03-29T05:13:44.436Z,11.60
2023-03-29T05:16:13.346Z,13.40
2023-03-29T05:18:42.218Z,11.90
2023-03-29T05:21:11.654Z,8.60
2023-03-29T05:23:41.102Z,7.60
2023-03-29T05:26:10.100Z,9.40
2023-03-29T05:28:39.682Z,7.90
2023-03-29T05:31:09.312Z,6.70
2023-03-29T05:33:41.128Z,10.10
2023-03-29T05:36:16.862Z,7.60
2023-03-29T05:38:47.842Z,14.10
2023-03-29T05:41:18.073Z,8.60
2023-03-29T05:43:46.890Z,12.10
2023-03-29T05:46:15.728Z,7.40
2023-03-29T05:48:49.685Z,10.60
2023-03-29T05:51:24.407Z,7.80
2023-03-29T05:53:56.048Z,7.90
2023-03-29T05:56:25.014Z,6.30
2023-03-29T05:58:57.186Z,10.10
2023-03-29T06:01:26.062Z,7.40
2023-03-29T06:04:01.913Z,10.00
2023-03-29T06:06:36.413Z,9.70
2023-03-29T06:09:05.883Z,6.80
2023-03-29T06:11:46.768Z,6.90
2023-03-29T06:14:30.263Z,9.70
2023-03-29T06:17:48.632Z,8.50
2023-03-29T06:20:18.570Z,6.80
2023-03-29T06:22:52.728Z,6.90
2023-03-29T06:25:21.610Z,9.00
2023-03-29T06:27:52.395Z,7.60
2023-03-29T06:30:21.703Z,8.10
2023-03-29T06:32:53.003Z,11.50
2023-03-29T06:35:41.042Z,8.00
2023-03-29T06:38:11.360Z,6.70
2023-03-29T06:41:13.074Z,8.80
2023-03-29T06:44:34.481Z,5.90
2023-03-29T06:47:08.389Z,5.80
2023-03-29T06:49:38.130Z,11.10
2023-03-29T06:52:27.824Z,6.00
2023-03-29T06:54:56.728Z,7.70
2023-03-29T06:57:25.992Z,6.40
2023-03-29T06:59:55.198Z,5.50
2023-03-29T07:02:27.520Z,5.20
2023-03-29T07:04:59.325Z,6.30
2023-03-29T07:07:54.200Z,5.90
2023-03-29T07:10:53.531Z,8.40
2023-03-29T07:13:27.823Z,8.20
2023-03-29T07:15:56.982Z,5.20
2023-03-29T07:18:35.241Z,5.70
2023-03-29T07:21:05.157Z,6.20
2023-03-29T07:23:34.372Z,5.00
2023-03-29T07:26:03.878Z,6.50
2023-03-29T07:28:32.619Z,8.90
2023-03-29T07:31:11.261Z,5.00
2023-03-29T07:33:46.633Z,4.80
2023-03-29T07:36:15.910Z,5.20
2023-03-29T07:38:44.954Z,5.10
2023-03-29T07:41:18.368Z,4.10
2023-03-29T07:43:52.683Z,4.70
2023-03-29T07:46:25.390Z,6.40
2023-03-29T07:48:56.888Z,8.20
2023-03-29T07:51:26.006Z,5.30
2023-03-29T07:54:01.354Z,5.60
2023-03-29T07:56:53.982Z,6.30
2023-03-29T07:59:36.790Z,4.40
2023-03-29T08:02:21.320Z,4.10
2023-03-29T08:04:54.931Z,5.80
2023-03-29T08:07:57.319Z,4.10
2023-03-29T08:10:47.093Z,5.10
2023-03-29T08:14:05.374Z,4.90
2023-03-29T08:17:14.815Z,4.40
2023-03-29T08:19:50.978Z,6.10
2023-03-29T08:22:23.786Z,6.80
2023-03-29T08:25:39.018Z,6.40
2023-03-29T08:28:08.084Z,5.20
2023-03-29T08:30:45.812Z,4.80
2023-03-29T08:33:14.748Z,4.20
2023-03-29T08:35:43.846Z,3.30
2023-03-29T08:38:22.082Z,4.00
2023-03-29T08:40:51.388Z,5.30
2023-03-29T08:43:59.598Z,4.10
2023-03-29T08:47:50.975Z,5.80
2023-03-29T08:50:25.794Z,5.30
2023-03-29T08:53:04.858Z,4.40
2023-03-29T08:56:26.729Z,3.90
2023-03-29T08:58:57.713Z,3.10
2023-03-29T09:01:35.061Z,5.10
2023-03-29T09:04:24.034Z,3.80
2023-03-29T09:07:45.578Z,2.10
2023-03-29T09:10:20.773Z,5.00
2023-03-29T09:13:11.444Z,4.30
2023-03-29T09:16:03.782Z,3.80
2023-03-29T09:18:56.664Z,2.70
2023-03-29T09:21:49.649Z,3.40
2023-03-29T09:24:44.765Z,4.00
2023-03-29T09:27:28.423Z,6.00
2023-03-29T09:30:17.186Z,3.20
2023-03-29T09:33:25.123Z,2.30
2023-03-29T09:36:36.566Z,2.90
2023-03-29T09:39:06.150Z,4.20
2023-03-29T09:41:49.199Z,2.60
2023-03-29T09:44:31.282Z,4.20
2023-03-29T09:47:20.231Z,2.40
2023-03-29T09:49:55.433Z,3.50
2023-03-29T09:52:24.378Z,3.40
2023-03-29T09:55:05.345Z,4.10
2023-03-29T09:58:28.068Z,3.40
2023-03-29T10:01:05.985Z,3.70
2023-03-29T10:03:37.221Z,4.40
2023-03-29T10:06:12.722Z,8.60
2023-03-29T10:09:02.812Z,3.90
2023-03-29T10:11:38.489Z,2.60
2023-03-29T10:14:18.930Z,3.60
2023-03-29T10:16:54.815Z,3.00
2023-03-29T10:19:35.180Z,3.20
2023-03-29T10:22:25.224Z,1.80
2023-03-29T10:24:57.387Z,2.50
2023-03-29T10:27:32.374Z,1.60
2023-03-29T10:30:09.498Z,2.40
2023-03-29T10:32:39.334Z,4.00
2023-03-29T10:35:34.968Z,4.40
2023-03-29T10:38:10.561Z,6.60
2023-03-29T10:41:23.217Z,2.70
2023-03-29T10:43:52.338Z,3.10
2023-03-29T10:46:36.357Z,3.90
2023-03-29T10:49:10.401Z,3.50
2023-03-29T10:51:45.338Z,2.90
2023-03-29T10:54:16.164Z,3.00
2023-03-29T10:56:52.447Z,8.60
2023-03-29T10:59:39.626Z,3.70
2023-03-29T11:02:14.643Z,3.40
2023-03-29T11:05:17.924Z,4.60
2023-03-29T11:08:31.850Z,8.80
2023-03-29T11:11:35.198Z,4.90
2023-03-29T11:14:29.153Z,4.60
2023-03-29T11:17:08.891Z,4.10
2023-03-29T11:19:47.490Z,4.10
2023-03-29T11:22:53.363Z,2.90
2023-03-29T11:26:02.802Z,4.80
2023-03-29T11:29:02.846Z,5.10
2023-03-29T11:31:53.122Z,2.80
2023-03-29T11:34:42.975Z,2.80
2023-03-29T11:37:23.318Z,4.10
2023-03-29T11:40:05.807Z,4.50
2023-03-29T11:42:39.477Z,4.00
2023-03-29T11:45:18.999Z,3.20
2023-03-29T11:47:49.499Z,4.60
2023-03-29T11:50:36.053Z,3.70
2023-03-29T11:53:26.426Z,3.70
2023-03-29T11:55:57.821Z,4.60
2023-03-29T11:58:39.091Z,5.30
2023-03-29T12:01:15.054Z,4.40
2023-03-29T12:03:54.189Z,6.90
2023-03-29T12:06:34.827Z,5.10
2023-03-29T12:09:24.457Z,4.60
2023-03-29T12:12:06.063Z,4.80
2023-03-29T12:15:20.570Z,4.70
2023-03-29T12:18:35.276Z,5.60
2023-03-29T12:21:11.075Z,5.70
2023-03-29T12:23:43.718Z,5.70
2023-03-29T12:26:20.694Z,6.10
2023-03-29T12:29:18.590Z,6.20
2023-03-29T12:32:21.702Z,3.30
2023-03-29T12:35:37.920Z,8.00
2023-03-29T12:38:30.549Z,5.80
2023-03-29T12:41:21.925Z,7.10
2023-03-29T12:44:15.580Z,5.30
2023-03-29T12:46:58.761Z,4.80
2023-03-29T12:49:34.446Z,4.20
2023-03-29T12:52:17.799Z,4.50
2023-03-29T12:54:59.369Z,3.40
2023-03-29T12:57:42.458Z,4.70
2023-03-29T13:00:22.676Z,4.70
2023-03-29T13:03:28.460Z,4.70
2023-03-29T13:06:05.333Z,4.10
2023-03-29T13:08:43.857Z,3.70
2023-03-29T13:11:27.824Z,4.90
2023-03-29T13:13:57.476Z,3.60
2023-03-29T13:16:35.214Z,4.90
2023-03-29T13:19:10.142Z,3.70
2023-03-29T13:21:49.515Z,6.10
2023-03-29T13:24:35.155Z,5.10
2023-03-29T13:27:35.126Z,3.80
2023-03-29T13:30:13.099Z,3.70
2023-03-29T13:33:24.981Z,4.10
2023-03-29T13:35:59.700Z,4.20
2023-03-29T13:38:32.062Z,3.40
2023-03-29T13:41:07.540Z,4.40
2023-03-29T13:43:56.068Z,4.30
2023-03-29T13:46:38.566Z,6.90
2023-03-29T13:49:19.872Z,3.30
2023-03-29T13:52:19.776Z,3.40
2023-03-29T13:55:02.214Z,5.80
2023-03-29T13:57:54.666Z,4.20
2023-03-29T14:00:37.016Z,3.20
2023-03-29T14:03:14.738Z,3.00
2023-03-29T14:05:50.982Z,3.50
2023-03-29T14:08:35.804Z,4.00
2023-03-29T14:11:08.517Z,4.00
2023-03-29T14:13:37.312Z,3.60
2023-03-29T14:16:11.665Z,2.20
2023-03-29T14:18:42.563Z,3.40
2023-03-29T14:21:15.795Z,4.40
2023-03-29T14:26:21.646Z,3.60
2023-03-29T14:29:01.347Z,4.70
2023-03-29T14:31:36.545Z,4.80
2023-03-29T14:34:11.681Z,3.90
2023-03-29T14:36:41.649Z,4.70
2023-03-29T14:39:23.058Z,4.50
2023-03-29T14:41:59.639Z,6.50
2023-03-29T14:44:34.787Z,6.10
2023-03-29T14:47:03.897Z,3.60
2023-03-29T14:49:33.305Z,3.20
2023-03-29T14:52:02.452Z,2.70
2023-03-29T14:54:34.413Z,4.00
2023-03-29T14:57:09.387Z,3.30
2023-03-29T14:59:44.186Z,5.90
2023-03-29T15:03:01.896Z,4.30
2023-03-29T15:05:33.394Z,4.40
2023-03-29T15:08:03.638Z,4.90
2023-03-29T15:10:35.707Z,3.60
2023-03-29T15:13:07.560Z,6.30
2023-03-29T15:15:39.158Z,6.80
2023-03-29T15:18:13.067Z,6.30
2023-03-29T15:20:42.755Z,7.20
2023-03-29T15:23:17.393Z,9.70
2023-03-29T15:26:21.851Z,7.20
2023-03-29T15:28:57.670Z,7.70
2023-03-29T15:31:34.923Z,5.20
2023-03-29T15:34:11.376Z,4.20
2023-03-29T15:36:45.748Z,5.60
2023-03-29T15:39:17.355Z,4.70
2023-03-29T15:41:49.539Z,3.90
2023-03-29T15:44:26.558Z,4.10
2023-03-29T15:46:57.974Z,6.90
2023-03-29T15:49:27.360Z,5.20
2023-03-29T15:51:56.101Z,3.30
2023-03-29T15:54:24.986Z,4.80
2023-03-29T15:57:12.852Z,3.60
2023-03-29T15:59:43.223Z,10.40
2023-03-29T16:02:16.817Z,6.30
2023-03-29T16:04:45.645Z,5.60
2023-03-29T16:07:17.179Z,5.70
2023-03-29T16:09:49.011Z,5.00
2023-03-29T16:12:17.759Z,5.10
2023-03-29T16:14:46.594Z,5.80
2023-03-29T16:17:16.099Z,6.50
2023-03-29T16:19:44.856Z,5.30
2023-03-29T16:22:13.575Z,6.80
2023-03-29T16:24:43.859Z,5.50
2023-03-29T16:27:12.673Z,7.50
2023-03-29T16:29:41.351Z,7.40
2023-03-29T16:32:11.272Z,5.80
2023-03-29T16:37:10.101Z,6.40
2023-03-29T16:39:39.008Z,8.20
2023-03-29T16:42:12.260Z,6.50
2023-03-29T16:44:41.086Z,6.00
2023-03-29T16:47:12.388Z,8.50
2023-03-29T16:49:41.932Z,5.80
2023-03-29T16:52:12.473Z,11.30
2023-03-29T16:54:42.447Z,7.90
2023-03-29T16:57:11.286Z,9.40
2023-03-29T16:59:41.930Z,9.10
2023-03-29T17:02:10.828Z,6.80
2023-03-29T17:04:39.618Z,7.60
2023-03-29T17:07:08.520Z,6.10
2023-03-29T17:09:37.179Z,9.70
2023-03-29T17:12:06.113Z,8.50
2023-03-29T17:14:34.981Z,6.40
2023-03-29T17:17:04.256Z,7.50
2023-03-29T17:19:33.132Z,7.00
2023-03-29T17:22:02.269Z,6.70
2023-03-29T17:24:31.135Z,6.70
2023-03-29T17:27:00.145Z,9.60
2023-03-29T17:29:28.889Z,9.20
2023-03-29T17:31:57.583Z,11.50
2023-03-29T17:34:29.080Z,13.60
2023-03-29T17:36:57.717Z,17.50
2023-03-29T17:39:27.307Z,15.30
2023-03-29T17:41:56.910Z,19.00
2023-03-29T17:44:25.667Z,17.80
2023-03-29T17:46:54.454Z,16.80
2023-03-29T17:49:23.158Z,19.70
2023-03-29T17:51:52.194Z,22.00
2023-03-29T17:54:21.083Z,17.30
2023-03-29T17:56:50.592Z,14.50
2023-03-29T17:59:19.468Z,17.90
2023-03-29T18:01:48.158Z,14.00
2023-03-29T18:04:16.884Z,14.40
2023-03-29T18:06:46.028Z,13.60
2023-03-29T18:09:14.717Z,12.80
2023-03-29T18:11:43.676Z,12.80
2023-03-29T18:14:12.416Z,12.00
2023-03-29T18:16:41.844Z,13.10
2023-03-29T18:19:10.986Z,15.20
2023-03-29T18:21:40.005Z,11.00
2023-03-29T18:24:08.734Z,12.30
2023-03-29T18:26:37.485Z,11.10
2023-03-29T18:29:07.382Z,12.30
2023-03-29T18:31:38.090Z,12.10
2023-03-29T18:34:06.921Z,11.90
2023-03-29T18:36:35.725Z,10.50
2023-03-29T18:39:07.475Z,10.40
2023-03-29T18:41:37.448Z,9.60
2023-03-29T18:44:07.912Z,12.80
2023-03-29T18:46:36.916Z,9.60
2023-03-29T18:49:07.892Z,8.80
2023-03-29T18:51:36.725Z,10.70
2023-03-29T18:54:06.204Z,10.70
2023-03-29T18:56:36.046Z,12.30
2023-03-29T18:59:06.576Z,13.50
2023-03-29T19:01:35.490Z,10.80
2023-03-29T19:04:04.570Z,12.60
2023-03-29T19:06:33.993Z,14.40
2023-03-29T19:09:05.219Z,14.60
2023-03-29T19:11:36.155Z,12.40
2023-03-29T19:14:08.470Z,14.10
2023-03-29T19:16:37.161Z,13.70
2023-03-29T19:19:08.706Z,13.80
2023-03-29T19:21:38.641Z,11.80
2023-03-29T19:24:07.996Z,14.10
2023-03-29T19:26:36.741Z,27.80
2023-03-29T19:29:05.765Z,12.00
2023-03-29T19:31:37.918Z,15.40
2023-03-29T19:34:07.162Z,21.70
2023-03-29T19:36:35.967Z,21.60
2023-03-29T19:39:06.215Z,20.40
2023-03-29T19:41:35.006Z,20.70
2023-03-29T19:44:05.436Z,20.40
2023-03-29T19:46:34.143Z,14.80
2023-03-29T19:49:05.159Z,16.60
2023-03-29T19:51:34.581Z,14.40
2023-03-29T19:54:03.310Z,14.70
2023-03-29T19:56:33.257Z,20.00
2023-03-29T19:59:01.995Z,20.00
2023-03-29T20:01:32.555Z,14.60
2023-03-29T20:04:02.649Z,15.20
2023-03-29T20:06:31.517Z,19.80
2023-03-29T20:09:00.346Z,22.00
2023-03-29T20:11:29.119Z,17.60
2023-03-29T20:13:57.868Z,13.10
2023-03-29T20:16:27.223Z,10.90
2023-03-29T20:18:56.447Z,18.50
2023-03-29T20:21:25.254Z,18.20
2023-03-29T20:23:53.982Z,12.60
2023-03-29T20:26:23.685Z,18.50
2023-03-29T20:28:52.580Z,18.00
2023-03-29T20:31:21.389Z,13.40
2023-03-29T20:33:50.459Z,11.50
2023-03-29T20:36:23.159Z,11.40
2023-03-29T20:38:52.697Z,14.90
2023-03-29T20:41:21.342Z,14.10
2023-03-29T20:43:58.638Z,21.20
2023-03-29T20:46:35.294Z,20.70
2023-03-29T20:49:09.008Z,16.60
2023-03-29T20:51:39.620Z,13.30
2023-03-29T20:54:10.226Z,18.20
2023-03-29T20:56:42.559Z,19.30
2023-03-29T20:59:11.366Z,18.30
2023-03-29T21:01:41.143Z,18.00
2023-03-29T21:04:11.123Z,17.90
2023-03-29T21:06:41.660Z,18.70
2023-03-29T21:09:10.392Z,18.30
2023-03-29T21:11:39.402Z,14.50
2023-03-29T21:14:09.489Z,13.00
2023-03-29T21:16:42.027Z,15.20
2023-03-29T21:19:11.073Z,14.30
2023-03-29T21:21:41.584Z,15.90
2023-03-29T21:24:13.525Z,18.80
2023-03-29T21:26:42.311Z,17.70
2023-03-29T21:29:11.568Z,13.60
2023-03-29T21:31:40.901Z,14.10
2023-03-29T21:34:09.708Z,15.60
2023-03-29T21:36:39.965Z,10.90
2023-03-29T21:39:08.839Z,17.50
2023-03-29T21:41:37.587Z,16.90
2023-03-29T21:44:06.452Z,11.10
2023-03-29T21:46:35.478Z,12.60
2023-03-29T21:49:04.394Z,13.10
2023-03-29T21:51:33.101Z,13.60
2023-03-29T21:54:01.823Z,13.00
2023-03-29T21:56:30.507Z,14.20
2023-03-29T21:58:59.172Z,14.50
2023-03-29T22:01:28.219Z,12.70
2023-03-29T22:03:57.082Z,18.80
2023-03-29T22:06:25.825Z,11.60
2023-03-29T22:08:54.722Z,13.50
2023-03-29T22:11:23.536Z,17.00
2023-03-29T22:13:52.788Z,12.30
2023-03-29T22:16:22.364Z,12.60
2023-03-29T22:18:52.586Z,12.30
2023-03-29T22:21:25.107Z,15.00
2023-03-29T22:23:56.877Z,10.60
2023-03-29T22:26:29.896Z,9.20
2023-03-29T22:29:00.614Z,10.10
2023-03-29T22:31:30.310Z,11.40
2023-03-29T22:34:00.013Z,10.70
2023-03-29T22:36:31.311Z,13.10
2023-03-29T22:38:59.977Z,11.70
2023-03-29T22:41:28.938Z,13.90
2023-03-29T22:44:01.234Z,11.40
2023-03-29T22:46:30.174Z,10.20
2023-03-29T22:48:59.041Z,10.80
2023-03-29T22:51:27.747Z,10.40
2023-03-29T22:53:56.474Z,9.10
2023-03-29T22:56:25.682Z,11.80
2023-03-29T22:58:54.411Z,9.10
2023-03-29T23:01:23.225Z,10.80
2023-03-29T23:03:51.975Z,11.00
2023-03-29T23:06:20.702Z,13.30
2023-03-29T23:08:49.368Z,9.40
2023-03-29T23:11:18.219Z,10.30
2023-03-29T23:13:49.036Z,8.50
2023-03-29T23:16:20.947Z,10.70
2023-03-29T23:18:49.840Z,11.70
2023-03-29T23:21:18.619Z,11.20
2023-03-29T23:23:47.280Z,8.70
2023-03-29T23:26:16.203Z,12.20
2023-03-29T23:28:45.006Z,10.90
2023-03-29T23:31:18.571Z,10.00
2023-03-29T23:33:47.490Z,9.00
2023-03-29T23:36:18.594Z,10.80
2023-03-29T23:38:47.991Z,7.70
2023-03-29T23:41:17.927Z,7.20
2023-03-29T23:43:47.591Z,8.70
2023-03-29T23:46:19.064Z,9.70
2023-03-29T23:48:50.289Z,8.90
2023-03-29T23:51:23.418Z,9.70
2023-03-29T23:53:52.696Z,8.00
2023-03-29T23:56:21.808Z,9.00
2023-03-29T23:58:51.153Z,8.50
